Weather at Region of Waterloo International Airport

Public forecast

Using degrees Celsius for public forecast. Weather courtesy of forecast.io.

Current aviation weather report (METAR) for Region of Waterloo International Airport

2024/06/19 07:00 (retrieved 1 hour ago)

CYKF 190700Z AUTO 21004KT 9SM OVC210 22/19 A3020 RMK SLP223 DENSITY ALT 1800FT

Aviation forecast (TAF) for Region of Waterloo International Airport

2024/06/19 08:42 (retrieved 0 seconds ago)

TAF CYKF 190740Z 1908/1920 18008KT P6SM FEW120 BKN220 TEMPO 1908/1910 P6SM -SHRA BKN060 OVC120 BECMG 1913/1915 22010KT RMK FCST BASED ON AUTO OBS NXT FCST BY 191400Z